createdAt,value
2022-11-24T00:00:22.154Z,242.57
2022-11-24T00:01:22.140Z,243.83
2022-11-24T00:02:22.268Z,241.50
2022-11-24T00:03:22.259Z,243.11
2022-11-24T00:04:22.104Z,245.29
2022-11-24T00:05:22.097Z,246.03
2022-11-24T00:06:22.082Z,245.11
2022-11-24T00:07:22.146Z,244.74
2022-11-24T00:08:22.058Z,245.29
2022-11-24T00:09:22.048Z,247.51
2022-11-24T00:10:22.019Z,246.03
2022-11-24T00:11:22.005Z,247.51
2022-11-24T00:12:21.991Z,248.07
2022-11-24T00:13:22.013Z,249.01
2022-11-24T00:14:21.973Z,249.01
2022-11-24T00:15:21.974Z,249.01
2022-11-24T00:16:21.978Z,249.39
2022-11-24T00:17:21.931Z,247.51
2022-11-24T00:18:21.938Z,246.21
2022-11-24T00:19:21.942Z,246.21
2022-11-24T00:20:21.912Z,245.11
2022-11-24T00:21:21.893Z,245.66
2022-11-24T00:22:21.886Z,244.93
2022-11-24T00:23:21.873Z,242.04
2022-11-24T00:24:21.871Z,239.91
2022-11-24T00:25:21.850Z,238.86
2022-11-24T00:26:21.839Z,239.91
2022-11-24T00:27:21.835Z,238.17
2022-11-24T00:28:21.804Z,236.97
2022-11-24T00:29:21.834Z,235.44
2022-11-24T00:30:21.796Z,235.77
2022-11-24T00:31:21.868Z,235.10
2022-11-24T00:32:21.770Z,230.96
2022-11-24T00:33:21.760Z,232.10
2022-11-24T00:34:21.796Z,230.31
2022-11-24T00:35:21.739Z,228.39
2022-11-24T00:36:21.755Z,226.97
2022-11-24T00:37:21.912Z,227.12
2022-11-24T00:38:21.712Z,225.87
2022-11-24T00:39:21.700Z,226.03
2022-11-24T00:40:21.688Z,224.18
2022-11-24T00:41:21.682Z,223.26
2022-11-24T00:42:21.667Z,222.35
2022-11-24T00:43:21.687Z,223.87
2022-11-24T00:44:21.639Z,222.05
2022-11-24T00:45:21.644Z,221.45
2022-11-24T00:46:21.681Z,220.26
2022-11-24T00:47:21.669Z,219.09
2022-11-24T00:48:21.599Z,218.65
2022-11-24T00:49:21.635Z,219.38
2022-11-24T00:50:21.594Z,217.20
2022-11-24T00:51:21.561Z,216.77
2022-11-24T00:52:21.562Z,216.34
2022-11-24T00:53:21.557Z,216.20
2022-11-24T00:54:21.552Z,216.06
2022-11-24T00:55:21.562Z,216.20
2022-11-24T00:56:21.530Z,217.20
2022-11-24T00:57:21.516Z,217.49
2022-11-24T00:58:21.488Z,217.06
2022-11-24T00:59:21.516Z,216.34
2022-11-24T01:00:21.483Z,215.49
2022-11-24T01:01:21.559Z,214.78
2022-11-24T01:02:21.480Z,216.77
2022-11-24T01:03:21.442Z,214.22
2022-11-24T01:04:21.446Z,213.94
2022-11-24T01:05:21.427Z,213.53
2022-11-24T01:06:21.406Z,212.15
2022-11-24T01:07:21.486Z,212.42
2022-11-24T01:08:21.386Z,211.87
2022-11-24T01:09:21.408Z,211.19
2022-11-24T01:10:21.381Z,210.11
2022-11-24T01:11:21.397Z,211.05
2022-11-24T01:12:21.350Z,210.38
2022-11-24T01:13:21.332Z,209.04
2022-11-24T01:14:21.322Z,208.37
2022-11-24T01:15:21.315Z,207.19
2022-11-24T01:16:21.397Z,206.93
2022-11-24T01:17:21.331Z,205.37
2022-11-24T01:18:21.278Z,205.12
2022-11-24T01:19:21.296Z,204.86
2022-11-24T01:20:21.256Z,204.48
2022-11-24T01:21:21.258Z,203.34
2022-11-24T01:22:21.263Z,203.59
2022-11-24T01:23:21.244Z,202.46
2022-11-24T01:24:21.206Z,201.59
2022-11-24T01:25:21.204Z,200.97
2022-11-24T01:26:21.195Z,201.09
2022-11-24T01:27:21.219Z,201.84
2022-11-24T01:28:21.174Z,201.46
2022-11-24T01:29:21.154Z,202.33
2022-11-24T01:30:21.171Z,201.84
2022-11-24T01:31:21.200Z,200.36
2022-11-24T01:32:21.119Z,200.85
2022-11-24T01:33:21.199Z,201.34
2022-11-24T01:34:21.107Z,200.97
2022-11-24T01:35:21.099Z,200.60
2022-11-24T01:36:21.088Z,199.26
2022-11-24T01:37:21.081Z,200.24
2022-11-24T01:38:21.081Z,199.50
2022-11-24T01:39:21.091Z,200.36
2022-11-24T01:40:21.043Z,199.50
2022-11-24T01:41:21.058Z,199.87
2022-11-24T01:42:21.018Z,200.11
2022-11-24T01:43:21.017Z,198.06
2022-11-24T01:44:21.018Z,199.75
2022-11-24T01:45:21.029Z,199.75
2022-11-24T01:46:21.052Z,199.50
2022-11-24T01:47:20.973Z,199.14
2022-11-24T01:48:24.464Z,199.63
2022-11-24T01:49:21.953Z,199.38
2022-11-24T01:50:20.965Z,200.48
2022-11-24T01:51:20.931Z,198.78
2022-11-24T01:52:20.912Z,200.85
2022-11-24T01:53:20.907Z,200.36
2022-11-24T01:54:20.898Z,200.73
2022-11-24T01:55:20.905Z,201.84
2022-11-24T01:56:20.870Z,202.58
2022-11-24T01:57:20.869Z,203.84
2022-11-24T01:58:20.849Z,203.97
2022-11-24T01:59:20.839Z,202.96
2022-11-24T02:00:20.855Z,203.97
2022-11-24T02:01:20.891Z,205.63
2022-11-24T02:02:20.858Z,205.63
2022-11-24T02:03:20.807Z,206.15
2022-11-24T02:04:20.780Z,206.15
2022-11-24T02:05:20.811Z,205.50
2022-11-24T02:06:20.763Z,205.89
2022-11-24T02:07:20.783Z,206.15
2022-11-24T02:08:20.738Z,205.12
2022-11-24T02:09:20.749Z,205.37
2022-11-24T02:10:20.752Z,205.89
2022-11-24T02:11:20.715Z,206.54
2022-11-24T02:12:20.711Z,206.41
2022-11-24T02:13:20.694Z,209.04
2022-11-24T02:14:20.681Z,208.77
2022-11-24T02:15:20.687Z,207.85
2022-11-24T02:16:20.694Z,206.93
2022-11-24T02:17:20.647Z,206.67
2022-11-24T02:18:20.628Z,208.11
2022-11-24T02:19:20.624Z,208.90
2022-11-24T02:20:20.632Z,208.77
2022-11-24T02:21:20.605Z,210.38
2022-11-24T02:22:20.587Z,208.77
2022-11-24T02:23:20.573Z,207.85
2022-11-24T02:24:20.576Z,207.98
2022-11-24T02:25:20.746Z,207.71
2022-11-24T02:26:20.547Z,207.06
2022-11-24T02:27:20.543Z,205.89
2022-11-24T02:28:20.531Z,205.89
2022-11-24T02:29:20.535Z,205.37
2022-11-24T02:30:20.517Z,205.50
2022-11-24T02:31:20.551Z,205.24
2022-11-24T02:32:20.486Z,205.12
2022-11-24T02:33:20.484Z,203.59
2022-11-24T02:34:20.463Z,203.59
2022-11-24T02:35:20.456Z,202.58
2022-11-24T02:36:20.458Z,201.71
2022-11-24T02:37:20.436Z,200.11
2022-11-24T02:38:20.423Z,199.26
2022-11-24T02:39:20.412Z,198.42
2022-11-24T02:40:20.400Z,197.35
2022-11-24T02:41:20.421Z,196.05
2022-11-24T02:42:20.374Z,195.70
2022-11-24T02:43:27.888Z,193.39
2022-11-24T02:44:20.541Z,192.26
2022-11-24T02:45:20.342Z,191.36
2022-11-24T02:46:20.400Z,190.80
2022-11-24T02:47:20.327Z,189.59
2022-11-24T02:48:20.302Z,188.61
2022-11-24T02:49:20.313Z,187.53
2022-11-24T02:50:20.485Z,187.96
2022-11-24T02:51:20.280Z,186.04
2022-11-24T02:52:20.275Z,185.20
2022-11-24T02:53:20.260Z,186.15
2022-11-24T02:54:20.252Z,184.60
2022-11-24T02:55:20.242Z,185.83
2022-11-24T02:56:20.254Z,184.80
2022-11-24T02:57:20.210Z,182.98
2022-11-24T02:58:20.202Z,183.18
2022-11-24T02:59:20.203Z,180.02
2022-11-24T03:00:20.178Z,180.21
2022-11-24T03:01:20.258Z,179.43
2022-11-24T03:02:20.201Z,177.71
2022-11-24T03:03:20.151Z,175.66
2022-11-24T03:04:20.139Z,175.84
2022-11-24T03:05:20.130Z,175.66
2022-11-24T03:06:20.138Z,174.74
2022-11-24T03:07:20.162Z,173.29
2022-11-24T03:08:20.098Z,172.21
2022-11-24T03:09:20.093Z,173.65
2022-11-24T03:10:20.073Z,172.93
2022-11-24T03:11:20.092Z,171.86
2022-11-24T03:12:20.049Z,170.98
2022-11-24T03:13:20.049Z,170.28
2022-11-24T03:14:20.030Z,170.11
2022-11-24T03:15:20.066Z,169.42
2022-11-24T03:16:20.058Z,168.73
2022-11-24T03:17:19.999Z,168.05
2022-11-24T03:18:19.995Z,168.05
2022-11-24T03:19:19.980Z,167.04
2022-11-24T03:20:19.967Z,166.71
2022-11-24T03:21:20.004Z,166.38
2022-11-24T03:22:19.940Z,165.06
2022-11-24T03:23:19.941Z,164.57
2022-11-24T03:24:19.936Z,162.96
2022-11-24T03:25:19.920Z,163.60
2022-11-24T03:26:19.908Z,162.17
2022-11-24T03:27:19.939Z,161.39
2022-11-24T03:28:19.889Z,161.54
2022-11-24T03:29:19.868Z,159.38
2022-11-24T03:30:19.864Z,159.08
2022-11-24T03:31:19.917Z,159.08
2022-11-24T03:32:19.861Z,158.32
2022-11-24T03:33:19.851Z,158.78
2022-11-24T03:34:19.816Z,158.78
2022-11-24T03:35:19.816Z,157.43
2022-11-24T03:36:19.821Z,157.28
2022-11-24T03:37:19.787Z,157.58
2022-11-24T03:38:19.786Z,156.69
2022-11-24T03:39:19.767Z,155.81
2022-11-24T03:40:19.777Z,155.67
2022-11-24T03:41:19.751Z,154.09
2022-11-24T03:42:19.746Z,154.09
2022-11-24T03:43:19.761Z,153.38
2022-11-24T03:44:19.711Z,154.09
2022-11-24T03:46:20.724Z,152.26
2022-11-24T03:47:19.685Z,152.82
2022-11-24T03:48:19.677Z,153.24
2022-11-24T03:49:19.686Z,152.40
2022-11-24T03:50:19.656Z,151.57
2022-11-24T03:51:19.636Z,151.02
2022-11-24T03:52:19.626Z,151.29
2022-11-24T03:53:19.631Z,150.61
2022-11-24T03:54:19.595Z,150.74
2022-11-24T03:55:19.621Z,150.34
2022-11-24T03:56:19.587Z,149.93
2022-11-24T03:57:19.570Z,149.40
2022-11-24T03:58:19.565Z,149.53
2022-11-24T03:59:19.560Z,148.86
2022-11-24T04:00:19.548Z,148.73
2022-11-24T04:01:19.588Z,148.33
2022-11-24T04:02:19.577Z,148.20
2022-11-24T04:03:19.517Z,147.29
2022-11-24T04:04:19.493Z,147.81
2022-11-24T04:05:19.484Z,147.16
2022-11-24T04:06:19.473Z,146.38
2022-11-24T04:07:19.557Z,146.00
2022-11-24T04:08:19.452Z,145.11
2022-11-24T04:09:19.438Z,143.98
2022-11-24T04:10:19.437Z,143.24
2022-11-24T04:11:19.430Z,142.02
2022-11-24T04:12:19.408Z,142.75
2022-11-24T04:13:19.423Z,141.30
2022-11-24T04:14:19.394Z,140.47
2022-11-24T04:15:19.379Z,139.99
2022-11-24T04:16:19.449Z,139.88
2022-11-24T04:17:19.399Z,138.71
2022-11-24T04:18:19.393Z,139.29
2022-11-24T04:19:19.389Z,138.71
2022-11-24T04:20:19.355Z,138.83
2022-11-24T04:21:19.339Z,138.83
2022-11-24T04:22:19.320Z,137.91
2022-11-24T04:23:19.338Z,139.06
2022-11-24T04:24:19.336Z,139.18
2022-11-24T04:25:19.290Z,138.95
2022-11-24T04:26:19.291Z,138.71
2022-11-24T04:27:19.279Z,139.06
2022-11-24T04:28:19.276Z,138.49
2022-11-24T04:29:19.255Z,137.80
2022-11-24T04:30:19.259Z,137.57
2022-11-24T04:31:19.286Z,137.23
2022-11-24T04:32:19.223Z,136.45
2022-11-24T04:33:19.210Z,135.67
2022-11-24T04:34:19.212Z,134.90
2022-11-24T04:35:19.220Z,134.68
2022-11-24T04:36:19.188Z,133.50
2022-11-24T04:37:19.169Z,133.39
2022-11-24T04:39:19.425Z,133.18
2022-11-24T04:39:26.409Z,132.23
2022-11-24T04:40:20.173Z,132.12
2022-11-24T04:41:19.121Z,131.29
2022-11-24T04:42:19.118Z,130.99
2022-11-24T04:43:19.119Z,131.19
2022-11-24T04:44:19.097Z,129.26
2022-11-24T04:45:19.082Z,129.46
2022-11-24T04:46:19.126Z,129.26
2022-11-24T04:47:19.077Z,128.27
2022-11-24T04:48:19.051Z,128.76
2022-11-24T04:49:19.036Z,128.07
2022-11-24T04:50:19.036Z,127.39
2022-11-24T04:51:19.021Z,126.90
2022-11-24T04:52:19.037Z,127.19
2022-11-24T04:53:19.007Z,126.71
2022-11-24T04:54:18.985Z,126.23
2022-11-24T04:55:18.975Z,125.47
2022-11-24T04:56:18.967Z,125.19
2022-11-24T04:57:18.988Z,124.44
2022-11-24T04:58:18.955Z,124.63
2022-11-24T04:59:18.933Z,124.53
2022-11-24T05:00:18.929Z,123.70
2022-11-24T05:01:18.938Z,123.79
2022-11-24T05:02:18.909Z,123.98
2022-11-24T05:03:18.915Z,123.70
2022-11-24T05:04:18.970Z,123.98
2022-11-24T05:05:18.904Z,124.81
2022-11-24T05:06:18.854Z,125.56
2022-11-24T05:07:19.564Z,126.04
2022-11-24T05:08:18.812Z,126.61
2022-11-24T05:09:18.817Z,127.78
2022-11-24T05:10:18.786Z,127.58
2022-11-24T05:11:18.805Z,127.48
2022-11-24T05:12:18.767Z,128.86
2022-11-24T05:13:18.754Z,128.37
2022-11-24T05:14:18.767Z,128.66
2022-11-24T05:15:18.733Z,129.06
2022-11-24T05:16:18.767Z,130.07
2022-11-24T05:17:18.710Z,130.27
2022-11-24T05:18:18.701Z,130.07
2022-11-24T05:19:18.687Z,129.56
2022-11-24T05:20:18.686Z,130.68
2022-11-24T05:21:18.696Z,129.86
2022-11-24T05:22:18.667Z,130.99
2022-11-24T05:23:18.642Z,130.27
2022-11-24T05:24:18.646Z,130.07
2022-11-24T05:25:18.630Z,129.86
2022-11-24T05:26:18.619Z,129.66
2022-11-24T05:27:18.605Z,129.46
2022-11-24T05:28:18.596Z,128.17
2022-11-24T05:29:18.597Z,127.58
2022-11-24T05:30:18.572Z,127.29
2022-11-24T05:31:18.706Z,126.52
2022-11-24T05:32:18.555Z,126.04
2022-11-24T05:33:18.551Z,125.19
2022-11-24T05:34:18.556Z,124.53
2022-11-24T05:35:18.538Z,124.91
2022-11-24T05:36:18.513Z,124.91
2022-11-24T05:37:18.492Z,124.81
2022-11-24T05:38:18.486Z,126.04
2022-11-24T05:39:18.567Z,127.58
2022-11-24T05:40:18.488Z,127.78
2022-11-24T05:41:18.484Z,128.66
2022-11-24T05:42:18.446Z,129.16
2022-11-24T05:43:18.438Z,130.37
2022-11-24T05:44:18.424Z,129.96
2022-11-24T05:45:18.489Z,131.09
2022-11-24T05:46:18.432Z,131.29
2022-11-24T05:47:18.385Z,131.60
2022-11-24T05:48:18.377Z,130.78
2022-11-24T05:49:18.367Z,132.12
2022-11-24T05:50:18.384Z,132.12
2022-11-24T05:51:18.347Z,132.44
2022-11-24T05:52:18.334Z,132.12
2022-11-24T05:53:18.329Z,132.76
2022-11-24T05:54:18.311Z,131.40
2022-11-24T05:55:18.349Z,132.23
2022-11-24T05:56:18.287Z,132.23
2022-11-24T05:57:18.275Z,131.40
2022-11-24T05:58:18.268Z,129.66
2022-11-24T05:59:18.258Z,128.96
2022-11-24T06:00:18.270Z,127.87
2022-11-24T06:01:18.641Z,127.48
2022-11-24T06:02:18.408Z,126.61
2022-11-24T06:03:18.429Z,126.42
2022-11-24T06:04:18.204Z,126.04
2022-11-24T06:05:18.184Z,125.85
2022-11-24T06:06:18.174Z,125.38
2022-11-24T06:07:18.220Z,125.56
2022-11-24T06:08:18.162Z,125.09
2022-11-24T06:09:18.317Z,125.85
2022-11-24T06:10:18.135Z,126.23
2022-11-24T06:11:18.128Z,126.32
2022-11-24T06:12:18.121Z,126.32
2022-11-24T06:13:18.176Z,126.13
2022-11-24T06:14:18.094Z,126.52
2022-11-24T06:15:18.253Z,125.85
2022-11-24T06:16:18.101Z,125.19
2022-11-24T06:17:18.065Z,124.16
2022-11-24T06:18:18.055Z,123.15
2022-11-24T06:19:18.043Z,123.15
2022-11-24T06:20:18.219Z,121.89
2022-11-24T06:21:18.022Z,121.10
2022-11-24T06:22:18.028Z,120.66
2022-11-24T06:23:18.005Z,120.14
2022-11-24T06:24:18.003Z,120.14
2022-11-24T06:25:17.970Z,120.14
2022-11-24T06:26:18.143Z,118.60
2022-11-24T06:27:17.960Z,118.43
2022-11-24T06:28:17.945Z,118.60
2022-11-24T06:29:17.941Z,117.27
2022-11-24T06:30:18.051Z,117.93
2022-11-24T06:31:18.957Z,117.60
2022-11-24T06:32:19.891Z,116.61
2022-11-24T06:33:17.936Z,115.80
2022-11-24T06:34:17.896Z,116.13
2022-11-24T06:35:17.881Z,115.80
2022-11-24T06:36:18.067Z,115.89
2022-11-24T06:37:17.858Z,115.40
2022-11-24T06:38:21.489Z,115.01
2022-11-24T06:39:18.929Z,114.77
2022-11-24T06:40:17.831Z,114.77
2022-11-24T06:41:17.807Z,114.77
2022-11-24T06:42:17.986Z,115.25
2022-11-24T06:43:17.786Z,115.89
2022-11-24T06:44:17.936Z,116.29
2022-11-24T06:45:17.761Z,117.93
2022-11-24T06:46:17.850Z,118.35
2022-11-24T06:47:17.912Z,118.35
2022-11-24T06:48:17.737Z,119.20
2022-11-24T06:49:17.719Z,119.28
2022-11-24T06:50:17.714Z,119.20
2022-11-24T06:51:17.696Z,119.45
2022-11-24T06:52:17.724Z,118.94
2022-11-24T06:53:17.843Z,119.28
2022-11-24T06:54:17.672Z,119.28
2022-11-24T06:55:17.662Z,119.54
2022-11-24T06:56:17.646Z,120.14
2022-11-24T06:57:17.631Z,121.28
2022-11-24T06:58:17.620Z,121.19
2022-11-24T06:59:17.781Z,122.43
2022-11-24T07:00:17.602Z,123.89
2022-11-24T07:01:17.745Z,126.52
2022-11-24T07:02:17.579Z,127.48
2022-11-24T07:03:17.612Z,129.26
2022-11-24T07:04:17.555Z,129.66
2022-11-24T07:05:17.726Z,131.71
2022-11-24T07:06:17.540Z,132.76
2022-11-24T07:07:17.567Z,132.76
2022-11-24T07:08:18.081Z,133.29
2022-11-24T07:09:17.509Z,134.25
2022-11-24T07:10:17.489Z,134.36
2022-11-24T07:11:17.669Z,133.29
2022-11-24T07:12:17.472Z,131.92
2022-11-24T07:13:17.460Z,130.07
2022-11-24T07:14:17.457Z,129.86
2022-11-24T07:15:17.446Z,128.37
2022-11-24T07:16:17.690Z,126.52
2022-11-24T07:17:17.424Z,125.75
2022-11-24T07:18:17.425Z,124.81
2022-11-24T07:19:23.139Z,124.44
2022-11-24T07:20:18.381Z,123.06
2022-11-24T07:21:17.383Z,122.97
2022-11-24T07:22:17.542Z,121.36
2022-11-24T07:23:17.369Z,121.01
2022-11-24T07:24:17.344Z,120.66
2022-11-24T07:25:17.335Z,121.19
2022-11-24T07:26:17.322Z,121.10
2022-11-24T07:27:17.307Z,120.05
2022-11-24T07:28:17.477Z,119.62
2022-11-24T07:29:17.287Z,120.57
2022-11-24T07:30:17.284Z,119.54
2022-11-24T07:31:17.351Z,119.97
2022-11-24T07:32:17.314Z,120.23
2022-11-24T07:33:17.252Z,119.37
2022-11-24T07:34:17.492Z,119.11
2022-11-24T07:35:17.225Z,119.28
2022-11-24T07:36:17.223Z,119.11
2022-11-24T07:37:17.206Z,118.02
2022-11-24T07:38:17.191Z,117.19
2022-11-24T07:39:17.188Z,116.86
2022-11-24T07:40:17.356Z,117.43
2022-11-24T07:41:17.166Z,117.35
2022-11-24T07:42:17.152Z,116.94
2022-11-24T07:43:20.160Z,116.53
2022-11-24T07:44:17.130Z,115.96
2022-11-24T07:45:17.120Z,115.80
2022-11-24T07:46:17.349Z,115.96
2022-11-24T07:47:17.094Z,115.80
2022-11-24T07:48:17.085Z,115.89
2022-11-24T07:49:17.078Z,114.85
2022-11-24T07:50:17.067Z,115.48
2022-11-24T07:51:17.234Z,114.85
2022-11-24T07:52:17.044Z,114.69
2022-11-24T07:53:17.035Z,114.69
2022-11-24T07:54:17.015Z,114.38
2022-11-24T07:55:17.022Z,114.06
2022-11-24T07:56:17.009Z,113.83
2022-11-24T07:57:17.165Z,113.60
2022-11-24T07:58:16.974Z,113.29
2022-11-24T07:59:16.977Z,113.14
2022-11-24T08:00:16.964Z,112.90
2022-11-24T08:01:17.042Z,112.53
2022-11-24T08:02:17.965Z,112.37
2022-11-24T08:03:16.956Z,111.55
2022-11-24T08:04:17.044Z,112.37
2022-11-24T08:05:16.910Z,111.18
2022-11-24T08:06:27.333Z,111.32
2022-11-24T08:07:17.898Z,110.95
2022-11-24T08:08:17.088Z,110.66
2022-11-24T08:09:16.887Z,110.51
2022-11-24T08:10:16.853Z,110.15
2022-11-24T08:11:16.849Z,109.71
2022-11-24T08:12:16.858Z,109.28
2022-11-24T08:13:17.063Z,109.14
2022-11-24T08:14:16.809Z,109.00
2022-11-24T08:15:16.802Z,108.64
2022-11-24T08:16:16.865Z,108.29
2022-11-24T08:17:16.782Z,108.22
2022-11-24T08:18:16.981Z,108.08
2022-11-24T08:19:16.788Z,107.73
2022-11-24T08:20:16.751Z,107.87
2022-11-24T08:21:16.752Z,108.43
2022-11-24T08:22:16.727Z,107.52
2022-11-24T08:23:16.712Z,106.97
2022-11-24T08:24:16.878Z,107.25
2022-11-24T08:25:16.696Z,107.59
2022-11-24T08:26:16.696Z,108.64
2022-11-24T08:27:16.672Z,107.73
2022-11-24T08:28:16.663Z,108.22
2022-11-24T08:29:16.843Z,109.14
2022-11-24T08:30:16.639Z,109.14
2022-11-24T08:31:16.647Z,109.28
2022-11-24T08:32:21.895Z,109.71
2022-11-24T08:33:17.623Z,111.47
2022-11-24T08:34:16.601Z,112.07
2022-11-24T08:35:16.818Z,112.07
2022-11-24T08:36:16.598Z,112.75
2022-11-24T08:37:16.571Z,111.85
2022-11-24T08:38:16.722Z,112.60
2022-11-24T08:39:16.542Z,112.22
2022-11-24T08:40:16.715Z,112.22
2022-11-24T08:41:16.544Z,112.07
2022-11-24T08:42:16.509Z,111.92
2022-11-24T08:43:16.501Z,111.18
2022-11-24T08:44:16.490Z,111.10
2022-11-24T08:45:20.747Z,110.51
2022-11-24T08:46:17.722Z,110.73
2022-11-24T08:47:16.454Z,109.93
2022-11-24T08:48:16.457Z,109.43
2022-11-24T08:49:16.436Z,109.86
2022-11-24T08:50:16.420Z,109.71
2022-11-24T08:51:16.758Z,109.79
2022-11-24T08:52:16.413Z,108.93
2022-11-24T08:53:16.402Z,109.14
2022-11-24T08:54:16.397Z,108.86
2022-11-24T08:55:16.372Z,108.64
2022-11-24T08:56:16.362Z,108.36
2022-11-24T08:57:21.595Z,108.36
2022-11-24T08:58:17.344Z,109.14
2022-11-24T08:59:16.414Z,110.07
2022-11-24T09:00:16.321Z,109.71
2022-11-24T09:01:16.367Z,110.29
2022-11-24T09:02:16.456Z,110.73
2022-11-24T09:03:16.281Z,110.81
2022-11-24T09:04:16.303Z,110.81
2022-11-24T09:05:49.618Z,111.62
2022-11-24T09:06:17.267Z,112.60
2022-11-24T09:07:17.407Z,113.14
2022-11-24T09:08:16.235Z,113.21
2022-11-24T09:09:16.219Z,113.44
2022-11-24T09:10:16.209Z,114.30
2022-11-24T09:11:16.197Z,114.69
2022-11-24T09:12:16.180Z,114.61
2022-11-24T09:13:16.371Z,115.01
2022-11-24T09:14:16.162Z,116.29
2022-11-24T09:15:16.189Z,117.27
2022-11-24T09:16:16.158Z,118.10
2022-11-24T09:17:16.137Z,118.18
2022-11-24T09:18:16.125Z,118.10
2022-11-24T09:19:16.349Z,117.52
2022-11-24T09:20:16.099Z,118.43
2022-11-24T09:21:16.105Z,117.77
2022-11-24T09:22:16.082Z,117.27
2022-11-24T09:23:16.069Z,117.85
2022-11-24T09:24:16.333Z,117.35
2022-11-24T09:25:16.042Z,117.02
2022-11-24T09:26:16.039Z,116.53
2022-11-24T09:27:16.017Z,116.61
2022-11-24T09:28:16.016Z,116.21
2022-11-24T09:29:16.384Z,116.94
2022-11-24T09:30:16.007Z,116.53
2022-11-24T09:31:16.060Z,116.29
2022-11-24T09:32:15.970Z,116.05
2022-11-24T09:33:15.965Z,116.53
2022-11-24T09:34:15.972Z,115.72
2022-11-24T09:35:16.128Z,115.25
2022-11-24T09:36:15.932Z,115.80
2022-11-24T09:37:15.916Z,115.64
2022-11-24T09:38:15.902Z,116.69
2022-11-24T09:39:15.902Z,116.13
2022-11-24T09:40:15.887Z,116.45
2022-11-24T09:41:16.102Z,115.09
2022-11-24T09:42:15.872Z,115.48
2022-11-24T09:43:15.852Z,114.53
2022-11-24T09:44:15.852Z,113.68
2022-11-24T09:45:15.825Z,112.68
2022-11-24T09:46:16.046Z,112.07
2022-11-24T09:47:15.814Z,110.88
2022-11-24T09:48:15.801Z,109.86
2022-11-24T09:49:15.797Z,109.35
2022-11-24T09:50:15.807Z,108.43
2022-11-24T09:51:15.795Z,107.52
2022-11-24T09:52:15.765Z,106.09
2022-11-24T09:53:15.755Z,105.82
2022-11-24T09:54:15.734Z,105.42
2022-11-24T09:55:15.729Z,104.89
2022-11-24T09:56:15.710Z,103.46
2022-11-24T09:57:15.870Z,102.44
2022-11-24T09:58:15.691Z,101.88
2022-11-24T09:59:15.683Z,101.20
2022-11-24T10:00:15.673Z,101.69
2022-11-24T10:01:15.912Z,102.75
2022-11-24T10:02:15.647Z,103.01
2022-11-24T10:03:15.636Z,105.02
2022-11-24T10:04:15.936Z,105.08
2022-11-24T10:05:15.618Z,107.59
2022-11-24T10:06:15.608Z,110.22
2022-11-24T10:07:15.633Z,110.88
2022-11-24T10:08:15.613Z,114.93
2022-11-24T10:09:15.576Z,116.94
2022-11-24T10:10:19.779Z,118.02
2022-11-24T10:11:16.547Z,120.23
2022-11-24T10:12:15.537Z,123.52
2022-11-24T10:13:15.536Z,124.72
2022-11-24T10:14:15.522Z,125.66
2022-11-24T10:15:15.524Z,128.66
2022-11-24T10:16:15.817Z,133.39
2022-11-24T10:17:15.486Z,135.34
2022-11-24T10:18:17.215Z,137.91
2022-11-24T10:19:15.466Z,139.88
2022-11-24T10:20:15.460Z,142.02
2022-11-24T10:21:15.455Z,144.73
2022-11-24T10:22:15.722Z,146.77
2022-11-24T10:23:15.426Z,149.13
2022-11-24T10:24:15.416Z,150.74
2022-11-24T10:25:15.422Z,151.98
2022-11-24T10:26:15.389Z,154.09
2022-11-24T10:27:15.553Z,154.66
2022-11-24T10:28:15.414Z,154.80
2022-11-24T10:29:15.394Z,151.98
2022-11-24T10:30:15.374Z,151.70
2022-11-24T10:31:15.379Z,152.54
2022-11-24T10:32:15.349Z,152.26
2022-11-24T10:33:15.328Z,151.02
2022-11-24T10:34:15.465Z,149.66
2022-11-24T10:35:15.306Z,149.26
2022-11-24T10:36:15.289Z,147.03
2022-11-24T10:37:15.272Z,146.00
2022-11-24T10:38:15.262Z,147.16
2022-11-24T10:39:15.413Z,147.68
2022-11-24T10:40:40.611Z,146.25
2022-11-24T10:41:16.230Z,145.11
2022-11-24T10:42:15.239Z,145.87
2022-11-24T10:43:15.213Z,145.87
2022-11-24T10:44:15.208Z,146.64
2022-11-24T10:45:15.355Z,147.16
2022-11-24T10:46:15.382Z,146.00
2022-11-24T10:47:15.166Z,147.03
2022-11-24T10:48:15.145Z,148.60
2022-11-24T10:49:15.136Z,147.42
2022-11-24T10:50:15.128Z,147.55
2022-11-24T10:51:15.123Z,149.40
2022-11-24T10:52:15.324Z,152.12
2022-11-24T10:53:15.106Z,153.52
2022-11-24T10:54:15.097Z,157.43
2022-11-24T10:55:15.075Z,160.46
2022-11-24T10:56:15.111Z,162.01
2022-11-24T10:57:15.055Z,162.80
2022-11-24T10:58:15.241Z,165.06
2022-11-24T10:59:15.037Z,166.38
2022-11-24T11:00:15.169Z,167.38
2022-11-24T11:01:15.113Z,169.24
2022-11-24T11:02:15.047Z,171.51
2022-11-24T11:03:15.003Z,173.83
2022-11-24T11:04:15.169Z,177.71
2022-11-24T11:05:15.159Z,178.67
2022-11-24T11:06:14.962Z,182.78
2022-11-24T11:07:14.988Z,186.24
2022-11-24T11:08:15.130Z,186.47
2022-11-24T11:09:14.932Z,187.85
2022-11-24T11:10:15.113Z,190.14
2022-11-24T11:11:14.906Z,190.69
2022-11-24T11:12:42.793Z,190.47
2022-11-24T11:13:15.888Z,191.25
2022-11-24T11:14:14.875Z,192.82
2022-11-24T11:15:14.866Z,193.50
2022-11-24T11:16:15.264Z,194.88
2022-11-24T11:17:14.845Z,195.58
2022-11-24T11:18:14.832Z,196.28
2022-11-24T11:19:53.215Z,196.52
2022-11-24T11:20:15.860Z,196.52
2022-11-24T11:21:14.808Z,194.08
2022-11-24T11:22:14.967Z,194.65
2022-11-24T11:23:14.985Z,193.28
2022-11-24T11:24:14.775Z,193.16
2022-11-24T11:25:14.771Z,191.92
2022-11-24T11:26:14.750Z,192.37
2022-11-24T11:27:14.925Z,190.58
2022-11-24T11:28:17.913Z,191.47
2022-11-24T11:31:19.097Z,192.71
2022-11-24T11:34:23.193Z,192.37
2022-11-24T11:35:15.655Z,193.62
2022-11-24T11:36:14.640Z,191.47
2022-11-24T11:37:14.641Z,194.08
2022-11-24T11:38:14.827Z,192.26
2022-11-24T11:39:14.595Z,192.37
2022-11-24T11:40:14.615Z,190.69
2022-11-24T11:41:14.589Z,190.14
2022-11-24T11:42:31.317Z,187.85
2022-11-24T11:43:15.744Z,190.14
2022-11-24T11:44:14.544Z,189.26
2022-11-24T11:45:14.575Z,190.14
2022-11-24T11:46:14.715Z,190.69
2022-11-24T11:47:14.758Z,191.14
2022-11-24T11:48:14.512Z,191.02
2022-11-24T11:49:14.488Z,192.48
2022-11-24T11:50:14.496Z,193.62
2022-11-24T11:51:23.221Z,196.63
2022-11-24T11:52:15.469Z,196.52
2022-11-24T11:53:14.458Z,199.63
2022-11-24T11:54:14.443Z,201.34
2022-11-24T11:55:14.625Z,201.84
2022-11-24T11:56:14.414Z,201.96
2022-11-24T11:57:14.602Z,202.21
2022-11-24T11:58:14.398Z,204.86
2022-11-24T11:59:14.391Z,206.41
2022-11-24T12:00:14.383Z,207.19
2022-11-24T12:01:14.378Z,207.06
2022-11-24T12:02:14.581Z,207.06
2022-11-24T12:03:14.600Z,208.11
2022-11-24T12:04:14.435Z,209.17
2022-11-24T12:05:14.333Z,208.24
2022-11-24T12:06:14.525Z,209.30
2022-11-24T12:07:14.342Z,211.60
2022-11-24T12:08:20.483Z,211.46
2022-11-24T12:09:22.459Z,209.71
2022-11-24T12:10:15.451Z,211.33
2022-11-24T12:11:14.294Z,211.05
2022-11-24T12:12:14.245Z,211.46
2022-11-24T12:13:14.232Z,211.60
2022-11-24T12:14:14.227Z,212.70
2022-11-24T12:15:14.225Z,214.64
2022-11-24T12:16:14.453Z,214.22
2022-11-24T12:17:14.194Z,216.63
2022-11-24T12:18:40.216Z,217.20
2022-11-24T12:19:15.351Z,219.23
2022-11-24T12:20:14.323Z,221.45
2022-11-24T12:21:14.148Z,222.96
2022-11-24T12:22:14.313Z,225.10
2022-11-24T12:23:14.122Z,226.03
2022-11-24T12:24:14.159Z,227.44
2022-11-24T12:25:14.111Z,229.19
2022-11-24T12:26:14.282Z,229.51
2022-11-24T12:27:19.367Z,227.28
2022-11-24T12:28:15.083Z,228.23
2022-11-24T12:29:14.071Z,228.39
2022-11-24T12:30:14.230Z,228.23
2022-11-24T12:31:14.123Z,229.35
2022-11-24T12:32:14.032Z,230.80
2022-11-24T12:33:14.207Z,229.19